Time;durP1;ratioP1;P1;durP2;ratioP2;P2;SDS_P1;SDS_P2;PMS_P1;PMS_P2;Temp;Humidity;BMP_temperature;BMP_pressure;BME280_temperature;BME280_humidity;BME280_pressure;Samples;Min_cycle;Max_cycle;Signal;HPM_P1;HPM_P2
2023/08/07 00:01:49;;;;;;;1.90;1.53;;;17.30;84.40;;;;;;5014996;28;20493;-74
2023/08/07 00:04:16;;;;;;;1.97;1.77;;;17.30;84.40;;;;;;5015059;28;20465;-74
2023/08/07 00:06:43;;;;;;;2.87;1.77;;;17.40;84.20;;;;;;5014815;28;20829;-74
2023/08/07 00:09:11;;;;;;;2.87;1.70;;;17.30;83.90;;;;;;5014443;28;20996;-73
2023/08/07 00:11:38;;;;;;;1.70;1.47;;;17.20;83.50;;;;;;5014994;28;20972;-74
2023/08/07 00:14:05;;;;;;;1.70;1.40;;;17.20;83.70;;;;;;5014977;28;20464;-74
2023/08/07 00:16:32;;;;;;;2.87;1.40;;;17.20;83.50;;;;;;5014286;28;20549;-73
2023/08/07 00:18:58;;;;;;;3.17;1.23;;;17.20;83.30;;;;;;5014479;28;20456;-73
2023/08/07 00:21:25;;;;;;;1.83;1.33;;;17.20;83.10;;;;;;5014356;28;20470;-74
2023/08/07 00:23:52;;;;;;;3.57;1.80;;;17.20;83.40;;;;;;4995087;28;20958;-74
2023/08/07 00:26:20;;;;;;;1.80;1.63;;;17.30;83.20;;;;;;4995474;28;20473;-74
2023/08/07 00:28:47;;;;;;;2.20;1.90;;;17.20;82.70;;;;;;4995144;28;20451;-74
2023/08/07 00:31:14;;;;;;;3.33;1.60;;;17.20;82.70;;;;;;4994801;28;20497;-74
2023/08/07 00:33:41;;;;;;;3.37;1.40;;;17.20;82.50;;;;;;4996234;28;20481;-74
2023/08/07 00:36:08;;;;;;;3.30;1.57;;;17.20;81.60;;;;;;5013932;28;20938;-74
2023/08/07 00:38:35;;;;;;;2.77;1.63;;;17.20;82.00;;;;;;5014644;28;20537;-74
2023/08/07 00:41:02;;;;;;;2.70;1.50;;;17.30;81.60;;;;;;5014659;28;20453;-74
2023/08/07 00:43:30;;;;;;;2.10;1.43;;;17.30;81.50;;;;;;5001978;28;20526;-74
2023/08/07 00:45:57;;;;;;;3.10;1.40;;;17.30;81.60;;;;;;4994744;28;20481;-74
2023/08/07 00:48:24;;;;;;;4.07;1.43;;;17.30;82.40;;;;;;5007322;28;20476;-74
2023/08/07 00:50:52;;;;;;;2.23;1.70;;;17.30;81.40;;;;;;5011986;28;20485;-74
2023/08/07 00:53:19;;;;;;;2.33;1.70;;;17.20;81.40;;;;;;5013482;28;20462;-75
2023/08/07 00:55:47;;;;;;;1.53;1.30;;;17.20;82.30;;;;;;5006445;28;20460;-74
2023/08/07 00:58:14;;;;;;;1.40;1.23;;;17.20;81.10;;;;;;5009468;28;20517;-74
2023/08/07 01:00:43;;;;;;;2.03;1.80;;;17.20;81.40;;;;;;4994049;28;20447;-74
2023/08/07 01:03:12;;;;;;;5.13;1.87;;;17.20;81.10;;;;;;5007111;28;20450;-74
2023/08/07 01:05:39;;;;;;;1.50;1.40;;;17.30;81.20;;;;;;5013894;28;20458;-74
2023/08/07 01:08:06;;;;;;;5.17;1.53;;;17.30;80.70;;;;;;5014009;28;20450;-74
2023/08/07 01:10:44;;;;;;;4.77;1.50;;;17.20;80.20;;;;;;5005176;28;20504;-74
2023/08/07 01:13:20;;;;;;;1.73;1.50;;;17.10;80.50;;;;;;4994502;28;20430;-75
2023/08/07 01:15:53;;;;;;;4.40;1.63;;;17.20;81.00;;;;;;5004823;28;20447;-74
2023/08/07 01:18:22;;;;;;;2.00;1.80;;;17.20;80.40;;;;;;5002350;28;20438;-74
2023/08/07 01:20:49;;;;;;;2.63;1.70;;;17.20;80.10;;;;;;4995490;28;20471;-75
2023/08/07 01:23:17;;;;;;;4.50;1.70;;;17.30;80.20;;;;;;4994388;28;20479;-74
2023/08/07 01:25:46;;;;;;;2.90;1.60;;;17.30;79.70;;;;;;4993979;28;20966;-74
2023/08/07 01:28:18;;;;;;;2.80;1.63;;;17.30;79.60;;;;;;5010913;28;20469;-74
2023/08/07 01:30:50;;;;;;;3.90;1.90;;;17.30;79.30;;;;;;5011490;28;20842;-74
2023/08/07 01:33:24;;;;;;;3.13;2.00;;;17.30;79.30;;;;;;5014651;28;20450;-75
2023/08/07 01:35:54;;;;;;;3.77;1.70;;;17.30;78.70;;;;;;5000024;28;20501;-74
2023/08/07 01:38:26;;;;;;;4.87;2.13;;;17.30;79.00;;;;;;5012242;28;20534;-75
2023/08/07 01:40:54;;;;;;;3.30;1.70;;;17.20;79.20;;;;;;5009140;28;20438;-74
2023/08/07 01:43:21;;;;;;;3.77;1.90;;;17.20;79.20;;;;;;4998511;28;20451;-74
2023/08/07 01:45:48;;;;;;;3.90;1.53;;;17.20;79.50;;;;;;5006816;28;20870;-74
2023/08/07 01:48:14;;;;;;;2.27;1.57;;;17.20;79.70;;;;;;4993368;28;20478;-75
2023/08/07 01:50:41;;;;;;;2.93;2.10;;;17.20;79.80;;;;;;4993512;28;20505;-74
2023/08/07 01:53:08;;;;;;;2.67;1.90;;;17.20;79.40;;;;;;5004763;28;20462;-74
2023/08/07 01:55:36;;;;;;;3.53;1.67;;;17.20;79.60;;;;;;5008903;28;20446;-74
2023/08/07 01:58:03;;;;;;;2.10;1.63;;;17.20;79.80;;;;;;5013029;28;20453;-75
2023/08/07 02:00:31;;;;;;;3.30;1.63;;;17.30;79.70;;;;;;5013157;28;21024;-74
2023/08/07 02:02:58;;;;;;;2.77;1.50;;;17.20;79.70;;;;;;5013207;28;20435;-74
2023/08/07 02:05:25;;;;;;;2.53;1.60;;;17.20;79.50;;;;;;4978202;28;20434;-74
2023/08/07 02:07:52;;;;;;;4.13;2.17;;;17.30;79.50;;;;;;5013092;28;20486;-74
2023/08/07 02:10:18;;;;;;;4.70;1.90;;;17.20;79.30;;;;;;5011438;28;20887;-74
2023/08/07 02:12:47;;;;;;;2.43;1.60;;;17.30;78.90;;;;;;4973541;28;20443;-74
2023/08/07 02:15:14;;;;;;;2.73;1.53;;;17.20;78.70;;;;;;4993420;28;20851;-74
2023/08/07 02:17:41;;;;;;;3.83;1.70;;;17.20;78.70;;;;;;4993945;28;20475;-74
2023/08/07 02:20:08;;;;;;;2.63;1.70;;;17.20;78.60;;;;;;4993048;28;20480;-74
2023/08/07 02:22:35;;;;;;;2.50;1.53;;;17.30;78.90;;;;;;4993324;28;20537;-73
2023/08/07 02:25:02;;;;;;;5.67;1.93;;;17.30;78.50;;;;;;5001244;28;20464;-73
2023/08/07 02:27:29;;;;;;;2.63;1.63;;;17.40;78.70;;;;;;5012509;28;20824;-73
2023/08/07 02:29:57;;;;;;;3.33;1.90;;;17.30;78.30;;;;;;4994630;28;20482;-74
2023/08/07 02:32:24;;;;;;;3.97;1.77;;;17.10;78.80;;;;;;5010895;28;20488;-75
2023/08/07 02:34:51;;;;;;;2.83;1.70;;;17.00;80.50;;;;;;4992940;28;20475;-74
2023/08/07 02:37:18;;;;;;;2.90;1.73;;;17.00;79.70;;;;;;5003825;28;20450;-74
2023/08/07 02:39:45;;;;;;;2.93;1.50;;;17.00;79.90;;;;;;5012491;28;20478;-74
2023/08/07 02:42:12;;;;;;;2.47;1.47;;;17.00;79.90;;;;;;5012336;28;20458;-75
2023/08/07 02:44:39;;;;;;;2.30;1.77;;;17.00;79.90;;;;;;5005646;28;20554;-75
2023/08/07 02:47:07;;;;;;;3.17;1.40;;;16.90;80.10;;;;;;4992349;28;20447;-75
2023/08/07 02:49:34;;;;;;;4.37;1.87;;;16.90;80.00;;;;;;5001893;28;20934;-75
2023/08/07 02:52:01;;;;;;;3.50;1.50;;;16.90;80.40;;;;;;5005556;28;20489;-75
2023/08/07 02:54:28;;;;;;;2.57;2.13;;;16.90;80.40;;;;;;5011550;28;20549;-75
2023/08/07 02:56:54;;;;;;;4.93;1.70;;;16.90;80.60;;;;;;5003559;28;20471;-74
2023/08/07 02:59:21;;;;;;;2.93;1.50;;;16.90;80.50;;;;;;5011849;28;20430;-75
2023/08/07 03:01:48;;;;;;;1.67;1.40;;;16.90;80.50;;;;;;5012046;28;20486;-75
2023/08/07 03:04:16;;;;;;;2.67;1.67;;;16.80;80.40;;;;;;5007678;28;21024;-75
2023/08/07 03:06:43;;;;;;;2.63;1.60;;;16.90;80.70;;;;;;5011523;28;20457;-74
2023/08/07 03:09:10;;;;;;;1.77;1.53;;;17.00;81.40;;;;;;5012002;28;20465;-75
2023/08/07 03:11:37;;;;;;;2.30;1.77;;;17.00;80.50;;;;;;5011727;28;20549;-75
2023/08/07 03:14:04;;;;;;;2.40;1.50;;;17.00;80.60;;;;;;5011232;28;20459;-75
2023/08/07 03:16:31;;;;;;;2.47;1.40;;;17.00;80.90;;;;;;5011861;28;20981;-75
2023/08/07 03:18:58;;;;;;;2.13;1.90;;;16.90;80.90;;;;;;5011837;28;20533;-75
2023/08/07 03:21:27;;;;;;;2.47;1.77;;;16.70;81.20;;;;;;5011645;28;20462;-75
2023/08/07 03:23:54;;;;;;;2.90;2.00;;;16.70;81.70;;;;;;5011151;28;20466;-75
2023/08/07 03:26:21;;;;;;;2.73;1.80;;;16.60;81.80;;;;;;5011792;28;20437;-74
2023/08/07 03:28:48;;;;;;;2.67;1.70;;;16.70;82.30;;;;;;5011931;28;20453;-75
2023/08/07 03:31:15;;;;;;;1.90;1.70;;;16.70;82.00;;;;;;4994481;28;20498;-75
2023/08/07 03:33:42;;;;;;;3.07;1.80;;;16.70;81.80;;;;;;5012579;28;20456;-75
2023/08/07 03:36:10;;;;;;;2.40;1.60;;;16.70;82.00;;;;;;5012316;28;20464;-73
2023/08/07 03:38:38;;;;;;;2.10;1.90;;;16.60;82.20;;;;;;5012049;28;20430;-74
2023/08/07 03:41:04;;;;;;;3.30;2.00;;;16.50;82.50;;;;;;4992569;28;20446;-75
2023/08/07 03:43:31;;;;;;;3.60;1.97;;;16.60;82.70;;;;;;5005560;28;20496;-75
2023/08/07 03:45:58;;;;;;;3.53;1.83;;;16.60;82.50;;;;;;5011960;28;20460;-75
2023/08/07 03:48:25;;;;;;;1.87;1.63;;;16.60;82.60;;;;;;5012163;28;20490;-75
2023/08/07 03:50:53;;;;;;;2.17;1.70;;;16.60;82.70;;;;;;5010587;28;20481;-74
2023/08/07 03:53:20;;;;;;;4.07;1.83;;;16.50;82.70;;;;;;5003403;28;20530;-75
2023/08/07 03:55:52;;;;;;;1.90;1.53;;;16.40;83.10;;;;;;5004920;28;20452;-75
2023/08/07 03:58:19;;;;;;;3.07;2.17;;;16.40;83.10;;;;;;5014011;28;20438;-73
2023/08/07 04:00:45;;;;;;;4.70;1.97;;;16.50;83.10;;;;;;5011741;28;20478;-73
2023/08/07 04:03:12;;;;;;;2.57;1.77;;;16.50;83.00;;;;;;4999683;28;20443;-73
2023/08/07 04:05:39;;;;;;;3.47;1.90;;;16.40;83.10;;;;;;4992641;28;20475;-73
2023/08/07 04:08:06;;;;;;;3.00;1.70;;;16.40;83.20;;;;;;4992311;28;20462;-74
2023/08/07 04:10:33;;;;;;;3.27;1.97;;;16.40;83.10;;;;;;4992054;28;20475;-73
2023/08/07 04:13:01;;;;;;;3.37;1.93;;;16.40;83.20;;;;;;4992092;28;20431;-73
2023/08/07 04:15:27;;;;;;;2.27;1.60;;;16.30;83.50;;;;;;5005170;28;20946;-73
2023/08/07 04:17:54;;;;;;;2.37;1.70;;;16.30;83.70;;;;;;5011809;28;20446;-73
2023/08/07 04:20:21;;;;;;;4.70;2.20;;;16.20;83.80;;;;;;5011876;28;20456;-73
2023/08/07 04:22:48;;;;;;;3.07;2.10;;;16.20;83.80;;;;;;5011479;28;20965;-73
2023/08/07 04:25:15;;;;;;;2.07;1.70;;;16.20;83.70;;;;;;5012006;28;20798;-74
2023/08/07 04:27:42;;;;;;;3.63;1.93;;;16.30;83.80;;;;;;5011282;28;20492;-73
2023/08/07 04:30:12;;;;;;;5.10;1.67;;;16.30;83.70;;;;;;5011505;28;20811;-73
2023/08/07 04:32:39;;;;;;;1.80;1.60;;;16.20;83.90;;;;;;5010808;28;20497;-72
2023/08/07 04:35:07;;;;;;;3.00;1.90;;;16.20;83.80;;;;;;5011759;28;20461;-73
2023/08/07 04:37:33;;;;;;;3.40;2.20;;;16.30;83.80;;;;;;5014918;28;20464;-73
2023/08/07 04:40:00;;;;;;;1.87;1.43;;;16.40;83.60;;;;;;5014373;28;20470;-73
2023/08/07 04:42:28;;;;;;;2.93;1.93;;;16.30;83.60;;;;;;5014527;28;20446;-73
2023/08/07 04:44:55;;;;;;;5.63;2.70;;;16.40;83.70;;;;;;5014962;28;20473;-73
2023/08/07 04:47:23;;;;;;;2.87;1.90;;;16.30;83.50;;;;;;5014777;28;20866;-72
2023/08/07 04:49:50;;;;;;;4.43;2.07;;;16.40;83.70;;;;;;5014679;28;20485;-74
2023/08/07 04:52:16;;;;;;;2.50;2.00;;;16.30;83.40;;;;;;5014511;28;20494;-73
2023/08/07 04:54:43;;;;;;;3.17;1.70;;;16.30;83.70;;;;;;5014886;28;20468;-73
2023/08/07 04:57:10;;;;;;;5.03;2.00;;;16.40;83.60;;;;;;5014524;28;20461;-73
2023/08/07 04:59:37;;;;;;;1.70;1.60;;;16.40;83.60;;;;;;5014059;28;20472;-73
2023/08/07 05:02:04;;;;;;;1.90;1.70;;;16.40;84.20;;;;;;5014278;28;20470;-73
2023/08/07 05:04:32;;;;;;;2.30;2.00;;;16.40;83.40;;;;;;5014800;28;20545;-73
2023/08/07 05:06:59;;;;;;;6.70;1.90;;;16.50;83.20;;;;;;5013788;28;20838;-74
2023/08/07 05:09:26;;;;;;;1.73;1.57;;;16.40;83.10;;;;;;5014845;28;20464;-73
2023/08/07 05:11:52;;;;;;;3.00;1.63;;;16.30;83.30;;;;;;5013890;28;20489;-73
2023/08/07 05:14:19;;;;;;;3.83;2.00;;;16.40;83.20;;;;;;4996601;28;20971;-73
2023/08/07 05:16:46;;;;;;;4.17;1.87;;;16.40;83.00;;;;;;5014090;28;20464;-74
2023/08/07 05:19:13;;;;;;;2.10;1.70;;;16.50;83.00;;;;;;5013824;28;21202;-73
2023/08/07 05:21:41;;;;;;;3.80;1.90;;;16.50;82.90;;;;;;5013827;28;20926;-74
2023/08/07 05:24:08;;;;;;;4.47;1.97;;;16.50;82.60;;;;;;5014181;28;20481;-73
2023/08/07 05:26:35;;;;;;;2.87;1.57;;;16.50;82.60;;;;;;5013580;28;20454;-74
2023/08/07 05:29:02;;;;;;;3.03;1.83;;;16.70;82.50;;;;;;5014122;28;20795;-73
2023/08/07 05:31:30;;;;;;;2.67;1.60;;;16.90;82.10;;;;;;5013764;28;20485;-73
2023/08/07 05:33:57;;;;;;;2.37;1.63;;;16.90;81.70;;;;;;5014222;28;20505;-74
2023/08/07 05:36:24;;;;;;;2.33;1.70;;;16.90;81.70;;;;;;4989503;28;20483;-73
2023/08/07 05:38:52;;;;;;;3.47;1.47;;;16.90;81.50;;;;;;4994643;28;20446;-73
2023/08/07 05:41:19;;;;;;;2.97;2.27;;;16.90;81.40;;;;;;5006419;28;20474;-73
2023/08/07 05:43:46;;;;;;;2.90;2.00;;;16.90;81.60;;;;;;4999338;28;20436;-74
2023/08/07 05:46:13;;;;;;;4.40;2.30;;;16.90;81.50;;;;;;4994018;28;20447;-74
2023/08/07 05:48:40;;;;;;;4.87;2.00;;;16.90;81.70;;;;;;4993407;28;20423;-73
2023/08/07 05:51:07;;;;;;;4.47;1.83;;;16.80;81.60;;;;;;4993803;28;20471;-73
2023/08/07 05:53:35;;;;;;;2.00;1.60;;;16.90;81.90;;;;;;5008068;28;20476;-74
2023/08/07 05:56:04;;;;;;;3.80;2.07;;;17.00;81.60;;;;;;5013810;28;20457;-74
2023/08/07 05:58:30;;;;;;;3.63;2.17;;;16.80;81.70;;;;;;5009383;28;20473;-73
2023/08/07 06:00:57;;;;;;;4.13;1.80;;;16.90;81.90;;;;;;4993935;28;20455;-74
2023/08/07 06:03:24;;;;;;;2.63;1.63;;;16.90;81.90;;;;;;4993954;28;20505;-73
2023/08/07 06:05:51;;;;;;;5.80;2.30;;;16.90;82.30;;;;;;4994191;28;20927;-74
2023/08/07 06:08:18;;;;;;;2.60;1.80;;;16.90;82.00;;;;;;5000116;28;20467;-74
2023/08/07 06:10:44;;;;;;;2.37;1.70;;;16.90;81.90;;;;;;5013079;28;20541;-73
2023/08/07 06:13:13;;;;;;;2.10;1.67;;;17.00;81.80;;;;;;5013353;28;20485;-73
2023/08/07 06:15:40;;;;;;;3.40;2.00;;;17.10;81.90;;;;;;5012705;28;20470;-74
2023/08/07 06:18:06;;;;;;;2.43;1.93;;;17.10;81.40;;;;;;5012586;28;20541;-74
2023/08/07 06:20:35;;;;;;;3.37;1.60;;;17.10;81.20;;;;;;5012922;28;20488;-74
2023/08/07 06:23:01;;;;;;;3.70;1.77;;;17.00;81.50;;;;;;5012906;28;20473;-73
2023/08/07 06:25:28;;;;;;;2.00;1.67;;;17.00;81.90;;;;;;5012693;28;20565;-74
2023/08/07 06:27:55;;;;;;;3.13;1.83;;;17.10;81.70;;;;;;5013202;28;20489;-73
2023/08/07 06:30:23;;;;;;;3.50;1.70;;;17.00;81.80;;;;;;5012492;28;20458;-73
2023/08/07 06:32:50;;;;;;;3.07;1.80;;;17.10;81.60;;;;;;5013009;28;20565;-73
2023/08/07 06:35:17;;;;;;;4.40;1.70;;;17.20;82.10;;;;;;5012559;28;20550;-73
2023/08/07 06:37:44;;;;;;;3.10;1.70;;;17.30;81.40;;;;;;5000328;28;20460;-73
2023/08/07 06:40:12;;;;;;;2.70;1.60;;;17.30;80.30;;;;;;5012874;28;20497;-73
2023/08/07 06:42:39;;;;;;;2.87;1.70;;;17.30;80.20;;;;;;4999636;28;20558;-73
2023/08/07 06:45:07;;;;;;;5.37;1.83;;;17.30;80.10;;;;;;5013876;28;20516;-74
2023/08/07 06:47:35;;;;;;;1.70;1.60;;;17.30;80.20;;;;;;4993858;28;20569;-73
2023/08/07 06:50:02;;;;;;;4.53;1.97;;;17.30;79.90;;;;;;4993475;28;20459;-74
2023/08/07 06:52:29;;;;;;;2.13;1.73;;;17.30;80.20;;;;;;4996350;28;20553;-73
2023/08/07 06:54:56;;;;;;;3.53;1.80;;;17.30;80.10;;;;;;5012576;28;20926;-74
2023/08/07 06:57:23;;;;;;;3.13;1.80;;;17.40;80.00;;;;;;5012276;28;20464;-74
2023/08/07 06:59:49;;;;;;;4.13;2.07;;;17.50;80.10;;;;;;5011442;28;21010;-73
2023/08/07 07:02:16;;;;;;;1.70;1.60;;;17.50;80.10;;;;;;5012151;28;20443;-73
2023/08/07 07:04:44;;;;;;;2.97;1.70;;;17.60;80.00;;;;;;5012088;28;20997;-73
2023/08/07 07:07:11;;;;;;;4.90;2.20;;;17.50;80.10;;;;;;5012191;28;20469;-73
2023/08/07 07:09:38;;;;;;;4.20;1.90;;;17.60;80.60;;;;;;5009727;28;20479;-73
2023/08/07 07:12:05;;;;;;;2.40;1.60;;;17.70;80.60;;;;;;4992944;28;20497;-73
2023/08/07 07:14:33;;;;;;;3.00;1.60;;;17.80;80.40;;;;;;4992996;28;20450;-73
2023/08/07 07:17:00;;;;;;;3.50;2.27;;;17.80;80.30;;;;;;5011727;28;20479;-74
2023/08/07 07:19:27;;;;;;;4.17;2.00;;;17.80;79.60;;;;;;5023843;28;20492;-73
2023/08/07 07:21:55;;;;;;;3.40;1.87;;;17.90;80.00;;;;;;5011273;28;20454;-74
2023/08/07 07:24:22;;;;;;;1.73;1.63;;;18.00;79.50;;;;;;5012380;28;20295;-73
2023/08/07 07:26:49;;;;;;;2.00;1.53;;;18.10;79.20;;;;;;5007054;28;20485;-73
2023/08/07 07:29:17;;;;;;;2.10;1.60;;;18.20;79.10;;;;;;5011078;28;20466;-74
2023/08/07 07:31:44;;;;;;;3.80;1.50;;;18.50;78.40;;;;;;5010324;28;20231;-73
2023/08/07 07:34:11;;;;;;;2.60;1.97;;;18.60;77.60;;;;;;5012130;28;20209;-73
2023/08/07 07:36:37;;;;;;;5.90;1.80;;;18.50;75.60;;;;;;5011591;28;20245;-74
2023/08/07 07:39:06;;;;;;;2.73;1.70;;;18.50;75.50;;;;;;5012303;28;20450;-73
2023/08/07 07:41:32;;;;;;;2.13;1.83;;;18.40;75.70;;;;;;5001386;28;20659;-73
2023/08/07 07:44:02;;;;;;;2.23;1.60;;;18.40;76.00;;;;;;4995376;28;20215;-73
2023/08/07 07:46:29;;;;;;;3.03;2.27;;;18.40;76.00;;;;;;5008381;28;20659;-73
2023/08/07 07:48:56;;;;;;;1.63;1.33;;;18.40;75.90;;;;;;5012339;28;20227;-73
2023/08/07 07:51:23;;;;;;;2.50;1.70;;;18.50;74.20;;;;;;5008211;28;20314;-73
2023/08/07 07:53:50;;;;;;;3.30;1.50;;;18.40;72.80;;;;;;5010894;28;20496;-73
2023/08/07 07:56:18;;;;;;;2.57;1.60;;;18.40;73.50;;;;;;5011794;28;20530;-73
2023/08/07 07:58:45;;;;;;;5.17;1.50;;;18.30;73.80;;;;;;5006919;28;20663;-74
2023/08/07 08:01:12;;;;;;;3.00;1.60;;;18.40;73.80;;;;;;5011285;28;20215;-73
2023/08/07 08:03:39;;;;;;;1.83;1.60;;;18.40;73.70;;;;;;5005218;28;20196;-73
2023/08/07 08:06:06;;;;;;;2.37;1.60;;;18.30;73.90;;;;;;5000708;28;20290;-73
2023/08/07 08:08:33;;;;;;;3.37;1.93;;;18.40;73.80;;;;;;5011260;28;20489;-74
2023/08/07 08:11:00;;;;;;;2.93;1.60;;;18.50;73.60;;;;;;5008374;28;20227;-73
2023/08/07 08:13:28;;;;;;;2.23;1.60;;;18.60;72.80;;;;;;5011335;28;20375;-73
2023/08/07 08:15:55;;;;;;;1.63;1.47;;;18.70;72.30;;;;;;4996220;28;20513;-73
2023/08/07 08:18:22;;;;;;;2.83;1.50;;;18.60;72.60;;;;;;5010777;28;20548;-73
2023/08/07 08:20:49;;;;;;;3.80;1.73;;;18.70;71.40;;;;;;5007747;28;20617;-74
2023/08/07 08:23:16;;;;;;;2.07;1.47;;;18.60;71.30;;;;;;5015795;28;20470;-73
2023/08/07 08:25:43;;;;;;;1.50;1.40;;;18.60;71.30;;;;;;5015240;28;20549;-74
2023/08/07 08:28:09;;;;;;;2.80;1.73;;;18.70;71.40;;;;;;5014586;28;20227;-73
2023/08/07 08:30:38;;;;;;;2.27;1.57;;;18.80;71.50;;;;;;5011366;28;20204;-73
2023/08/07 08:33:05;;;;;;;2.73;2.40;;;18.90;70.50;;;;;;5001763;28;20238;-73
2023/08/07 08:35:32;;;;;;;2.23;1.50;;;19.00;70.40;;;;;;5015841;28;20203;-74
2023/08/07 08:37:59;;;;;;;2.10;1.57;;;19.00;70.60;;;;;;5015339;28;20504;-74
2023/08/07 08:40:26;;;;;;;4.93;1.70;;;19.10;69.20;;;;;;5014802;28;20286;-74
2023/08/07 08:42:57;;;;;;;2.47;1.60;;;19.20;70.10;;;;;;5013546;28;20247;-74
2023/08/07 08:45:27;;;;;;;3.33;1.50;;;19.20;69.10;;;;;;5015570;28;20209;-74
2023/08/07 08:47:59;;;;;;;2.87;1.57;;;19.20;69.20;;;;;;5014920;28;20677;-74
2023/08/07 08:50:27;;;;;;;3.67;1.40;;;19.30;69.40;;;;;;5015029;28;20239;-74
2023/08/07 08:52:56;;;;;;;1.70;1.30;;;19.40;68.30;;;;;;5013289;28;20321;-74
2023/08/07 08:55:24;;;;;;;3.50;1.70;;;19.40;67.60;;;;;;5015239;28;20238;-74
2023/08/07 08:57:51;;;;;;;2.10;1.80;;;19.60;68.50;;;;;;5014985;28;20200;-74
2023/08/07 09:00:20;;;;;;;2.07;1.60;;;19.80;68.80;;;;;;5014839;28;20634;-74
2023/08/07 09:02:49;;;;;;;2.10;1.60;;;19.90;66.00;;;;;;5014765;28;20214;-75
2023/08/07 09:05:18;;;;;;;1.67;1.20;;;19.90;67.20;;;;;;5014794;28;20218;-74
2023/08/07 09:07:46;;;;;;;4.83;1.50;;;20.00;65.30;;;;;;5014505;28;20322;-74
2023/08/07 09:10:14;;;;;;;2.10;1.70;;;19.90;64.70;;;;;;5015111;28;20269;-74
2023/08/07 09:12:43;;;;;;;2.63;1.60;;;20.00;65.90;;;;;;5013746;28;20733;-75
2023/08/07 09:15:15;;;;;;;2.50;1.60;;;20.10;65.50;;;;;;5014590;28;20671;-75
2023/08/07 09:17:46;;;;;;;3.73;1.50;;;20.00;63.30;;;;;;5014143;28;20636;-74
2023/08/07 09:20:14;;;;;;;2.30;1.93;;;20.00;64.00;;;;;;5014942;28;20242;-74
2023/08/07 09:22:43;;;;;;;1.97;1.43;;;20.10;65.00;;;;;;5013759;28;20722;-74
2023/08/07 09:25:10;;;;;;;1.63;1.37;;;20.30;65.10;;;;;;5014404;28;20285;-74
2023/08/07 09:27:38;;;;;;;1.70;1.43;;;20.50;65.20;;;;;;5012711;28;20203;-74
2023/08/07 09:30:09;;;;;;;2.03;1.50;;;20.60;62.90;;;;;;5014579;28;20262;-74
2023/08/07 09:32:36;;;;;;;1.77;1.67;;;20.50;61.80;;;;;;5013856;28;20219;-74
2023/08/07 09:35:04;;;;;;;2.63;1.63;;;20.60;62.80;;;;;;4980022;28;20219;-74
2023/08/07 09:37:31;;;;;;;2.00;1.53;;;20.70;63.80;;;;;;5013821;28;20203;-74
2023/08/07 09:40:02;;;;;;;4.97;1.80;;;20.80;62.30;;;;;;5014254;28;20211;-74
2023/08/07 09:42:33;;;;;;;2.77;1.40;;;20.90;61.70;;;;;;5008989;28;20597;-74
2023/08/07 09:45:01;;;;;;;3.03;1.70;;;21.00;60.70;;;;;;5013277;28;20199;-74
2023/08/07 09:47:29;;;;;;;2.33;1.70;;;21.10;60.30;;;;;;5013020;28;20691;-74
2023/08/07 09:49:56;;;;;;;3.33;1.83;;;21.10;60.30;;;;;;4994362;28;20221;-74
2023/08/07 09:52:26;;;;;;;2.63;1.50;;;21.20;60.00;;;;;;5011459;28;20223;-74
2023/08/07 09:54:57;;;;;;;4.37;1.67;;;21.40;60.50;;;;;;5014065;28;20207;-74
2023/08/07 09:57:27;;;;;;;2.10;1.50;;;21.60;61.10;;;;;;5009295;28;20269;-74
2023/08/07 09:59:55;;;;;;;2.47;1.60;;;21.80;59.60;;;;;;5005606;28;20632;-73
2023/08/07 10:02:22;;;;;;;1.87;1.67;;;21.80;59.30;;;;;;5010203;28;20553;-74
2023/08/07 10:04:51;;;;;;;2.53;1.83;;;21.90;59.20;;;;;;4995554;28;20316;-74
2023/08/07 10:07:18;;;;;;;2.17;1.70;;;21.70;56.90;;;;;;5013200;28;20306;-74
2023/08/07 10:09:46;;;;;;;2.40;1.80;;;21.70;58.80;;;;;;5013401;28;20237;-74
2023/08/07 10:12:14;;;;;;;2.13;1.53;;;21.70;58.10;;;;;;5009084;28;20307;-74
2023/08/07 10:14:43;;;;;;;2.70;2.00;;;21.50;58.10;;;;;;5012928;28;20865;-74
2023/08/07 10:17:11;;;;;;;2.37;1.67;;;21.60;57.90;;;;;;4993532;28;20219;-74
2023/08/07 10:19:38;;;;;;;3.50;1.70;;;21.70;58.10;;;;;;4993665;28;20302;-75
2023/08/07 10:22:07;;;;;;;3.23;1.53;;;21.80;57.60;;;;;;4993648;28;20198;-74
2023/08/07 10:24:36;;;;;;;2.70;1.80;;;21.90;57.70;;;;;;5011546;28;20207;-74
2023/08/07 10:27:04;;;;;;;2.93;1.80;;;22.00;57.50;;;;;;5011833;28;20624;-74
2023/08/07 10:29:32;;;;;;;4.37;1.80;;;22.00;57.70;;;;;;5004054;28;20734;-72
2023/08/07 10:32:03;;;;;;;1.80;1.53;;;22.10;57.10;;;;;;4993380;28;20240;-72
2023/08/07 10:34:30;;;;;;;3.87;1.70;;;22.20;57.60;;;;;;4993210;28;20212;-72
2023/08/07 10:36:57;;;;;;;2.20;1.70;;;22.10;56.50;;;;;;5003337;28;20241;-73
2023/08/07 10:39:24;;;;;;;2.17;1.90;;;22.10;56.40;;;;;;5012528;28;20258;-73
2023/08/07 10:41:55;;;;;;;1.70;1.60;;;22.00;56.00;;;;;;5012747;28;20290;-73
2023/08/07 10:44:24;;;;;;;2.10;1.80;;;22.00;56.60;;;;;;4999439;28;20191;-72
2023/08/07 10:46:53;;;;;;;3.27;1.80;;;22.00;56.90;;;;;;5013082;28;20207;-73
2023/08/07 10:49:35;;;;;;;2.77;1.67;;;21.90;56.80;;;;;;5012889;28;20226;-73
2023/08/07 10:52:10;;;;;;;2.70;1.67;;;21.80;57.00;;;;;;5012826;28;20626;-74
2023/08/07 10:54:43;;;;;;;2.37;1.43;;;21.80;56.30;;;;;;5012765;28;20245;-72
2023/08/07 10:57:14;;;;;;;1.73;1.50;;;21.80;57.70;;;;;;5012387;28;20223;-72
2023/08/07 10:59:49;;;;;;;2.37;1.70;;;21.80;58.90;;;;;;5012636;28;20257;-73
2023/08/07 11:02:25;;;;;;;2.30;1.63;;;21.60;57.70;;;;;;5012006;28;20195;-73
2023/08/07 11:04:55;;;;;;;3.10;1.90;;;21.50;59.50;;;;;;5012402;28;20201;-73
2023/08/07 11:07:27;;;;;;;3.83;1.67;;;21.50;58.70;;;;;;5012269;28;20314;-73
2023/08/07 11:09:54;;;;;;;3.97;1.83;;;21.50;59.50;;;;;;5012858;28;20261;-73
2023/08/07 11:12:21;;;;;;;2.27;1.80;;;21.30;59.40;;;;;;5011963;28;20233;-73
2023/08/07 11:14:48;;;;;;;3.03;1.87;;;21.40;60.50;;;;;;5012573;28;20663;-73
2023/08/07 11:17:15;;;;;;;2.50;1.63;;;21.50;61.90;;;;;;5012303;28;20218;-73
2023/08/07 11:19:42;;;;;;;1.73;1.37;;;21.60;61.00;;;;;;5012404;28;20203;-73
2023/08/07 11:22:11;;;;;;;1.97;1.70;;;21.60;60.70;;;;;;5007235;28;20214;-73
2023/08/07 11:24:39;;;;;;;3.90;1.63;;;21.60;61.10;;;;;;4992887;28;20763;-73
2023/08/07 11:27:08;;;;;;;1.87;1.63;;;21.50;59.80;;;;;;5002794;28;20201;-73
2023/08/07 11:29:35;;;;;;;4.27;1.97;;;21.30;58.60;;;;;;5011367;28;20230;-73
2023/08/07 11:32:02;;;;;;;3.47;1.43;;;21.10;58.40;;;;;;4990925;28;20212;-73
2023/08/07 11:34:30;;;;;;;2.13;1.60;;;21.00;58.70;;;;;;5005452;28;20426;-73
2023/08/07 11:36:57;;;;;;;1.70;1.50;;;21.00;57.50;;;;;;5011845;28;20725;-72
2023/08/07 11:39:26;;;;;;;1.90;1.60;;;21.00;58.60;;;;;;5010850;28;20234;-72
2023/08/07 11:41:53;;;;;;;3.90;1.60;;;21.10;58.90;;;;;;5011866;28;20239;-72
2023/08/07 11:44:20;;;;;;;2.87;1.77;;;21.20;59.10;;;;;;5012039;28;20206;-72
2023/08/07 11:46:47;;;;;;;1.60;1.50;;;21.30;59.40;;;;;;5016339;28;20215;-73
2023/08/07 11:49:13;;;;;;;1.40;1.30;;;21.40;61.20;;;;;;5016505;28;20253;-74
2023/08/07 11:51:41;;;;;;;1.87;1.60;;;21.50;62.10;;;;;;5015999;28;20313;-72
2023/08/07 11:54:14;;;;;;;2.20;1.43;;;21.60;62.60;;;;;;5015533;28;20281;-68
2023/08/07 11:56:44;;;;;;;2.27;1.70;;;21.70;62.90;;;;;;5015371;28;20203;-69
2023/08/07 11:59:11;;;;;;;1.63;1.30;;;21.70;59.60;;;;;;5016201;28;20233;-71
2023/08/07 12:01:40;;;;;;;2.53;1.60;;;21.60;60.20;;;;;;5015837;28;20210;-71
2023/08/07 12:04:10;;;;;;;2.80;1.80;;;21.70;61.10;;;;;;5015248;28;20218;-71
2023/08/07 12:06:39;;;;;;;1.47;1.30;;;21.70;59.60;;;;;;5015478;28;20325;-71
2023/08/07 12:09:12;;;;;;;2.57;1.80;;;21.60;58.80;;;;;;5015690;28;20218;-71
2023/08/07 12:11:39;;;;;;;2.90;1.70;;;21.80;59.90;;;;;;5015044;28;20257;-71
2023/08/07 12:14:07;;;;;;;1.33;1.23;;;22.00;58.10;;;;;;5015014;28;20218;-71
2023/08/07 12:16:35;;;;;;;3.67;1.50;;;22.00;58.30;;;;;;5015649;28;20643;-72
2023/08/07 12:19:03;;;;;;;1.80;1.70;;;22.10;57.30;;;;;;5015311;28;20231;-72
2023/08/07 12:21:33;;;;;;;4.10;1.60;;;22.20;57.80;;;;;;5015375;28;20298;-72
2023/08/07 12:24:00;;;;;;;1.50;1.40;;;22.30;57.40;;;;;;5015422;28;20256;-71
2023/08/07 12:26:27;;;;;;;2.60;1.80;;;22.40;56.00;;;;;;5015242;28;20678;-72
2023/08/07 12:28:54;;;;;;;4.60;1.40;;;22.60;55.30;;;;;;5015184;28;20233;-71
2023/08/07 12:31:22;;;;;;;1.90;1.60;;;22.70;55.60;;;;;;5015489;28;20299;-71
2023/08/07 12:33:49;;;;;;;1.97;1.57;;;22.90;56.20;;;;;;5014907;28;20222;-72
2023/08/07 12:36:17;;;;;;;1.40;1.30;;;22.90;55.50;;;;;;5014805;28;20231;-71
2023/08/07 12:38:43;;;;;;;2.20;1.70;;;23.00;54.60;;;;;;5015061;28;20209;-72
2023/08/07 12:41:10;;;;;;;3.63;1.80;;;22.90;54.50;;;;;;5014295;28;20215;-72
2023/08/07 12:43:37;;;;;;;2.40;1.50;;;22.90;54.20;;;;;;5000835;28;20652;-71
2023/08/07 12:46:04;;;;;;;2.87;1.73;;;23.00;54.80;;;;;;5034593;28;20573;-71
2023/08/07 12:48:32;;;;;;;2.33;1.97;;;23.10;54.80;;;;;;5033355;28;20320;-72
2023/08/07 12:50:59;;;;;;;2.57;1.60;;;23.30;57.00;;;;;;5034111;28;20313;-71